sensor_id;sensor_type;location;lat;lon;timestamp;temperature;humidity
48551;DHT22;34397;51.176;6.738;2023-06-14T00:00:12;21.90;42.50
48551;DHT22;34397;51.176;6.738;2023-06-14T00:02:45;21.80;42.60
48551;DHT22;34397;51.176;6.738;2023-06-14T00:05:17;21.80;42.70
48551;DHT22;34397;51.176;6.738;2023-06-14T00:07:49;21.70;42.80
48551;DHT22;34397;51.176;6.738;2023-06-14T00:10:25;21.70;42.70
48551;DHT22;34397;51.176;6.738;2023-06-14T00:13:01;21.70;42.90
48551;DHT22;34397;51.176;6.738;2023-06-14T00:15:34;21.70;42.90
48551;DHT22;34397;51.176;6.738;2023-06-14T00:18:06;21.70;42.60
48551;DHT22;34397;51.176;6.738;2023-06-14T00:20:40;21.70;42.60
48551;DHT22;34397;51.176;6.738;2023-06-14T00:23:13;21.70;42.70
48551;DHT22;34397;51.176;6.738;2023-06-14T00:25:46;21.70;42.90
48551;DHT22;34397;51.176;6.738;2023-06-14T00:28:19;21.70;42.60
48551;DHT22;34397;51.176;6.738;2023-06-14T00:30:50;21.70;41.80
48551;DHT22;34397;51.176;6.738;2023-06-14T00:33:22;21.70;41.30
48551;DHT22;34397;51.176;6.738;2023-06-14T00:35:55;21.70;42.30
48551;DHT22;34397;51.176;6.738;2023-06-14T00:38:26;21.70;42.40
48551;DHT22;34397;51.176;6.738;2023-06-14T00:41:00;21.70;42.50
48551;DHT22;34397;51.176;6.738;2023-06-14T00:43:32;21.70;42.40
48551;DHT22;34397;51.176;6.738;2023-06-14T00:46:05;21.60;42.10
48551;DHT22;34397;51.176;6.738;2023-06-14T00:48:37;21.60;42.20
48551;DHT22;34397;51.176;6.738;2023-06-14T00:51:10;21.50;42.10
48551;DHT22;34397;51.176;6.738;2023-06-14T00:53:42;21.50;42.10
48551;DHT22;34397;51.176;6.738;2023-06-14T00:56:18;21.40;42.20
48551;DHT22;34397;51.176;6.738;2023-06-14T00:58:51;21.40;42.30
48551;DHT22;34397;51.176;6.738;2023-06-14T01:01:23;21.30;42.20
48551;DHT22;34397;51.176;6.738;2023-06-14T01:03:55;21.30;42.20
48551;DHT22;34397;51.176;6.738;2023-06-14T01:06:33;21.30;41.90
48551;DHT22;34397;51.176;6.738;2023-06-14T01:09:17;21.20;42.50
48551;DHT22;34397;51.176;6.738;2023-06-14T01:11:59;21.10;42.70
48551;DHT22;34397;51.176;6.738;2023-06-14T01:14:33;21.00;43.00
48551;DHT22;34397;51.176;6.738;2023-06-14T01:17:07;20.90;42.90
48551;DHT22;34397;51.176;6.738;2023-06-14T01:19:47;20.80;43.00
48551;DHT22;34397;51.176;6.738;2023-06-14T01:22:19;20.80;43.20
48551;DHT22;34397;51.176;6.738;2023-06-14T01:24:52;20.70;43.40
48551;DHT22;34397;51.176;6.738;2023-06-14T01:27:26;20.60;43.80
48551;DHT22;34397;51.176;6.738;2023-06-14T01:29:59;20.60;43.70
48551;DHT22;34397;51.176;6.738;2023-06-14T01:32:36;20.50;43.80
48551;DHT22;34397;51.176;6.738;2023-06-14T01:35:08;20.50;43.90
48551;DHT22;34397;51.176;6.738;2023-06-14T01:37:40;20.40;44.20
48551;DHT22;34397;51.176;6.738;2023-06-14T01:40:15;20.30;44.10
48551;DHT22;34397;51.176;6.738;2023-06-14T01:42:49;20.30;45.10
48551;DHT22;34397;51.176;6.738;2023-06-14T01:45:22;20.20;44.70
48551;DHT22;34397;51.176;6.738;2023-06-14T01:47:54;20.20;44.70
48551;DHT22;34397;51.176;6.738;2023-06-14T01:50:28;20.20;44.90
48551;DHT22;34397;51.176;6.738;2023-06-14T01:53:01;20.10;45.10
48551;DHT22;34397;51.176;6.738;2023-06-14T01:55:34;20.10;45.20
48551;DHT22;34397;51.176;6.738;2023-06-14T01:58:07;20.10;45.40
48551;DHT22;34397;51.176;6.738;2023-06-14T02:00:39;20.00;45.50
48551;DHT22;34397;51.176;6.738;2023-06-14T02:03:13;20.00;45.70
48551;DHT22;34397;51.176;6.738;2023-06-14T02:05:45;19.90;45.80
48551;DHT22;34397;51.176;6.738;2023-06-14T02:08:17;19.90;45.80
48551;DHT22;34397;51.176;6.738;2023-06-14T02:10:51;19.90;46.00
48551;DHT22;34397;51.176;6.738;2023-06-14T02:13:23;19.80;45.90
48551;DHT22;34397;51.176;6.738;2023-06-14T02:15:54;19.80;45.90
48551;DHT22;34397;51.176;6.738;2023-06-14T02:18:27;19.80;46.00
48551;DHT22;34397;51.176;6.738;2023-06-14T02:20:59;19.70;45.90
48551;DHT22;34397;51.176;6.738;2023-06-14T02:23:31;19.70;46.10
48551;DHT22;34397;51.176;6.738;2023-06-14T02:26:05;19.60;46.00
48551;DHT22;34397;51.176;6.738;2023-06-14T02:28:37;19.60;46.40
48551;DHT22;34397;51.176;6.738;2023-06-14T02:31:08;19.50;46.50
48551;DHT22;34397;51.176;6.738;2023-06-14T02:33:40;19.50;46.40
48551;DHT22;34397;51.176;6.738;2023-06-14T02:36:12;19.40;46.40
48551;DHT22;34397;51.176;6.738;2023-06-14T02:38:44;19.40;46.20
48551;DHT22;34397;51.176;6.738;2023-06-14T02:41:18;19.30;46.20
48551;DHT22;34397;51.176;6.738;2023-06-14T02:43:50;19.30;46.30
48551;DHT22;34397;51.176;6.738;2023-06-14T02:46:22;19.30;46.30
48551;DHT22;34397;51.176;6.738;2023-06-14T02:48:54;19.20;46.30
48551;DHT22;34397;51.176;6.738;2023-06-14T02:51:26;19.20;46.30
48551;DHT22;34397;51.176;6.738;2023-06-14T02:53:57;19.20;46.30
48551;DHT22;34397;51.176;6.738;2023-06-14T02:56:31;19.20;46.20
48551;DHT22;34397;51.176;6.738;2023-06-14T02:59:02;19.10;46.30
48551;DHT22;34397;51.176;6.738;2023-06-14T03:01:34;19.10;46.50
48551;DHT22;34397;51.176;6.738;2023-06-14T03:04:09;19.10;46.60
48551;DHT22;34397;51.176;6.738;2023-06-14T03:06:41;19.10;46.60
48551;DHT22;34397;51.176;6.738;2023-06-14T03:09:14;19.10;46.60
48551;DHT22;34397;51.176;6.738;2023-06-14T03:11:47;19.10;46.80
48551;DHT22;34397;51.176;6.738;2023-06-14T03:14:19;19.10;47.00
48551;DHT22;34397;51.176;6.738;2023-06-14T03:16:51;19.00;47.20
48551;DHT22;34397;51.176;6.738;2023-06-14T03:19:27;19.00;47.30
48551;DHT22;34397;51.176;6.738;2023-06-14T03:21:59;19.00;47.40
48551;DHT22;34397;51.176;6.738;2023-06-14T03:24:30;19.00;47.60
48551;DHT22;34397;51.176;6.738;2023-06-14T03:27:08;19.00;47.60
48551;DHT22;34397;51.176;6.738;2023-06-14T03:29:41;19.00;47.60
48551;DHT22;34397;51.176;6.738;2023-06-14T03:32:13;19.00;47.60
48551;DHT22;34397;51.176;6.738;2023-06-14T03:34:45;19.00;47.70
48551;DHT22;34397;51.176;6.738;2023-06-14T03:37:17;19.00;47.90
48551;DHT22;34397;51.176;6.738;2023-06-14T03:39:49;19.00;47.80
48551;DHT22;34397;51.176;6.738;2023-06-14T03:42:22;18.90;47.70
48551;DHT22;34397;51.176;6.738;2023-06-14T03:44:54;18.90;47.90
48551;DHT22;34397;51.176;6.738;2023-06-14T03:47:26;18.80;48.10
48551;DHT22;34397;51.176;6.738;2023-06-14T03:49:58;18.80;48.20
48551;DHT22;34397;51.176;6.738;2023-06-14T03:52:30;18.70;48.50
48551;DHT22;34397;51.176;6.738;2023-06-14T03:55:04;18.70;48.60
48551;DHT22;34397;51.176;6.738;2023-06-14T03:57:38;18.60;48.90
48551;DHT22;34397;51.176;6.738;2023-06-14T04:00:10;18.60;49.10
48551;DHT22;34397;51.176;6.738;2023-06-14T04:02:43;18.60;49.20
48551;DHT22;34397;51.176;6.738;2023-06-14T04:05:15;18.50;49.30
48551;DHT22;34397;51.176;6.738;2023-06-14T04:07:49;18.50;49.40
48551;DHT22;34397;51.176;6.738;2023-06-14T04:10:21;18.50;49.80
48551;DHT22;34397;51.176;6.738;2023-06-14T04:12:54;18.50;49.80
48551;DHT22;34397;51.176;6.738;2023-06-14T04:15:26;18.50;50.20
48551;DHT22;34397;51.176;6.738;2023-06-14T04:17:59;18.60;50.10
48551;DHT22;34397;51.176;6.738;2023-06-14T04:20:31;18.60;50.10
48551;DHT22;34397;51.176;6.738;2023-06-14T04:23:13;18.70;50.10
48551;DHT22;34397;51.176;6.738;2023-06-14T04:25:45;18.70;49.70
48551;DHT22;34397;51.176;6.738;2023-06-14T04:28:20;18.80;49.50
48551;DHT22;34397;51.176;6.738;2023-06-14T04:30:56;18.90;49.40
48551;DHT22;34397;51.176;6.738;2023-06-14T04:33:27;19.00;48.80
48551;DHT22;34397;51.176;6.738;2023-06-14T04:35:59;19.10;49.20
48551;DHT22;34397;51.176;6.738;2023-06-14T04:38:31;19.10;47.90
48551;DHT22;34397;51.176;6.738;2023-06-14T04:41:05;19.20;47.00
48551;DHT22;34397;51.176;6.738;2023-06-14T04:43:38;19.30;46.40
48551;DHT22;34397;51.176;6.738;2023-06-14T04:46:10;19.40;46.10
48551;DHT22;34397;51.176;6.738;2023-06-14T04:48:45;19.50;45.60
48551;DHT22;34397;51.176;6.738;2023-06-14T04:51:18;19.60;45.40
48551;DHT22;34397;51.176;6.738;2023-06-14T04:53:51;19.70;44.80
48551;DHT22;34397;51.176;6.738;2023-06-14T04:56:27;19.80;44.70
48551;DHT22;34397;51.176;6.738;2023-06-14T04:59:02;19.90;44.30
48551;DHT22;34397;51.176;6.738;2023-06-14T05:01:35;20.00;44.30
48551;DHT22;34397;51.176;6.738;2023-06-14T05:04:08;20.00;43.70
48551;DHT22;34397;51.176;6.738;2023-06-14T05:06:39;20.10;43.90
48551;DHT22;34397;51.176;6.738;2023-06-14T05:09:12;20.20;43.30
48551;DHT22;34397;51.176;6.738;2023-06-14T05:11:44;20.30;42.70
48551;DHT22;34397;51.176;6.738;2023-06-14T05:14:19;20.30;42.80
48551;DHT22;34397;51.176;6.738;2023-06-14T05:16:52;20.40;42.70
48551;DHT22;34397;51.176;6.738;2023-06-14T05:19:24;20.50;42.10
48551;DHT22;34397;51.176;6.738;2023-06-14T05:21:56;20.50;41.60
48551;DHT22;34397;51.176;6.738;2023-06-14T05:24:28;20.60;42.00
48551;DHT22;34397;51.176;6.738;2023-06-14T05:27:00;20.70;40.60
48551;DHT22;34397;51.176;6.738;2023-06-14T05:29:34;20.80;41.20
48551;DHT22;34397;51.176;6.738;2023-06-14T05:32:07;20.80;40.60
48551;DHT22;34397;51.176;6.738;2023-06-14T05:34:40;20.80;40.30
48551;DHT22;34397;51.176;6.738;2023-06-14T05:37:11;20.80;40.80
48551;DHT22;34397;51.176;6.738;2023-06-14T05:39:43;20.90;40.80
48551;DHT22;34397;51.176;6.738;2023-06-14T05:42:15;20.90;40.80
48551;DHT22;34397;51.176;6.738;2023-06-14T05:44:49;20.90;40.40
48551;DHT22;34397;51.176;6.738;2023-06-14T05:47:20;20.90;40.60
48551;DHT22;34397;51.176;6.738;2023-06-14T05:49:52;21.00;40.80
48551;DHT22;34397;51.176;6.738;2023-06-14T05:52:24;21.00;41.40
48551;DHT22;34397;51.176;6.738;2023-06-14T05:54:56;21.00;41.00
48551;DHT22;34397;51.176;6.738;2023-06-14T05:57:28;21.10;41.00
48551;DHT22;34397;51.176;6.738;2023-06-14T06:00:02;21.10;40.90
48551;DHT22;34397;51.176;6.738;2023-06-14T06:02:40;21.10;40.40
48551;DHT22;34397;51.176;6.738;2023-06-14T06:05:13;21.10;40.20
48551;DHT22;34397;51.176;6.738;2023-06-14T06:07:46;21.10;40.80
48551;DHT22;34397;51.176;6.738;2023-06-14T06:10:18;21.10;41.10
48551;DHT22;34397;51.176;6.738;2023-06-14T06:12:50;21.20;41.30
48551;DHT22;34397;51.176;6.738;2023-06-14T06:15:24;21.10;40.40
48551;DHT22;34397;51.176;6.738;2023-06-14T06:17:56;21.20;40.60
48551;DHT22;34397;51.176;6.738;2023-06-14T06:20:29;21.20;40.60
48551;DHT22;34397;51.176;6.738;2023-06-14T06:23:02;21.20;40.60
48551;DHT22;34397;51.176;6.738;2023-06-14T06:25:34;21.20;40.60
48551;DHT22;34397;51.176;6.738;2023-06-14T06:28:05;21.30;41.00
48551;DHT22;34397;51.176;6.738;2023-06-14T06:30:39;21.30;40.70
48551;DHT22;34397;51.176;6.738;2023-06-14T06:33:11;21.30;41.00
48551;DHT22;34397;51.176;6.738;2023-06-14T06:35:43;21.30;41.50
48551;DHT22;34397;51.176;6.738;2023-06-14T06:38:15;21.40;40.60
48551;DHT22;34397;51.176;6.738;2023-06-14T06:40:49;21.40;41.40
48551;DHT22;34397;51.176;6.738;2023-06-14T06:43:21;21.40;41.60
48551;DHT22;34397;51.176;6.738;2023-06-14T06:45:54;21.40;40.50
48551;DHT22;34397;51.176;6.738;2023-06-14T06:48:26;21.50;40.40
48551;DHT22;34397;51.176;6.738;2023-06-14T06:50:57;21.40;40.90
48551;DHT22;34397;51.176;6.738;2023-06-14T06:53:29;21.50;40.90
48551;DHT22;34397;51.176;6.738;2023-06-14T06:56:01;21.50;41.60
48551;DHT22;34397;51.176;6.738;2023-06-14T06:58:33;21.50;40.70
48551;DHT22;34397;51.176;6.738;2023-06-14T07:01:07;21.50;41.10
48551;DHT22;34397;51.176;6.738;2023-06-14T07:03:39;21.50;39.70
48551;DHT22;34397;51.176;6.738;2023-06-14T07:06:11;21.60;39.70
48551;DHT22;34397;51.176;6.738;2023-06-14T07:08:43;21.70;40.00
48551;DHT22;34397;51.176;6.738;2023-06-14T07:11:15;21.70;38.90
48551;DHT22;34397;51.176;6.738;2023-06-14T07:13:47;21.80;39.60
48551;DHT22;34397;51.176;6.738;2023-06-14T07:16:20;21.80;39.60
48551;DHT22;34397;51.176;6.738;2023-06-14T07:18:52;21.90;39.30
48551;DHT22;34397;51.176;6.738;2023-06-14T07:21:24;21.90;38.60
48551;DHT22;34397;51.176;6.738;2023-06-14T07:23:57;22.00;38.10
48551;DHT22;34397;51.176;6.738;2023-06-14T07:26:28;22.00;37.90
48551;DHT22;34397;51.176;6.738;2023-06-14T07:29:01;22.10;38.40
48551;DHT22;34397;51.176;6.738;2023-06-14T07:31:34;22.10;37.30
48551;DHT22;34397;51.176;6.738;2023-06-14T07:34:06;22.20;37.20
48551;DHT22;34397;51.176;6.738;2023-06-14T07:36:38;22.30;36.20
48551;DHT22;34397;51.176;6.738;2023-06-14T07:39:10;22.30;36.50
48551;DHT22;34397;51.176;6.738;2023-06-14T07:41:41;22.40;36.10
48551;DHT22;34397;51.176;6.738;2023-06-14T07:44:13;22.40;35.50
48551;DHT22;34397;51.176;6.738;2023-06-14T07:46:47;22.40;36.00
48551;DHT22;34397;51.176;6.738;2023-06-14T07:49:20;22.40;38.10
48551;DHT22;34397;51.176;6.738;2023-06-14T07:51:52;22.40;36.60
48551;DHT22;34397;51.176;6.738;2023-06-14T07:54:24;22.40;37.50
48551;DHT22;34397;51.176;6.738;2023-06-14T07:56:56;22.30;37.20
48551;DHT22;34397;51.176;6.738;2023-06-14T07:59:30;22.30;36.80
48551;DHT22;34397;51.176;6.738;2023-06-14T08:02:04;22.30;36.90
48551;DHT22;34397;51.176;6.738;2023-06-14T08:04:36;22.40;36.70
48551;DHT22;34397;51.176;6.738;2023-06-14T08:07:08;22.30;36.80
48551;DHT22;34397;51.176;6.738;2023-06-14T08:09:40;22.30;37.60
48551;DHT22;34397;51.176;6.738;2023-06-14T08:12:12;22.30;37.10
48551;DHT22;34397;51.176;6.738;2023-06-14T08:14:44;22.40;37.60
48551;DHT22;34397;51.176;6.738;2023-06-14T08:17:17;22.40;36.70
48551;DHT22;34397;51.176;6.738;2023-06-14T08:19:49;22.40;36.60
48551;DHT22;34397;51.176;6.738;2023-06-14T08:22:21;22.40;36.50
48551;DHT22;34397;51.176;6.738;2023-06-14T08:24:54;22.50;37.00
48551;DHT22;34397;51.176;6.738;2023-06-14T08:27:26;22.50;36.10
48551;DHT22;34397;51.176;6.738;2023-06-14T08:29:58;22.50;36.00
48551;DHT22;34397;51.176;6.738;2023-06-14T08:32:31;22.50;35.50
48551;DHT22;34397;51.176;6.738;2023-06-14T08:35:04;22.60;34.70
48551;DHT22;34397;51.176;6.738;2023-06-14T08:37:38;22.60;35.40
48551;DHT22;34397;51.176;6.738;2023-06-14T08:40:18;22.60;35.50
48551;DHT22;34397;51.176;6.738;2023-06-14T08:42:52;22.70;34.40
48551;DHT22;34397;51.176;6.738;2023-06-14T08:45:25;22.70;35.50
48551;DHT22;34397;51.176;6.738;2023-06-14T08:47:59;22.80;34.90
48551;DHT22;34397;51.176;6.738;2023-06-14T08:50:32;22.80;35.40
48551;DHT22;34397;51.176;6.738;2023-06-14T08:53:05;22.80;36.30
48551;DHT22;34397;51.176;6.738;2023-06-14T08:55:40;22.80;35.60
48551;DHT22;34397;51.176;6.738;2023-06-14T08:58:14;22.90;34.40
48551;DHT22;34397;51.176;6.738;2023-06-14T09:00:46;22.90;34.90
48551;DHT22;34397;51.176;6.738;2023-06-14T09:03:19;23.00;35.20
48551;DHT22;34397;51.176;6.738;2023-06-14T09:05:51;23.00;35.00
48551;DHT22;34397;51.176;6.738;2023-06-14T09:08:25;23.10;35.70
48551;DHT22;34397;51.176;6.738;2023-06-14T09:10:57;23.10;35.70
48551;DHT22;34397;51.176;6.738;2023-06-14T09:13:29;23.10;36.20
48551;DHT22;34397;51.176;6.738;2023-06-14T09:16:01;23.20;36.20
48551;DHT22;34397;51.176;6.738;2023-06-14T09:18:37;23.30;36.60
48551;DHT22;34397;51.176;6.738;2023-06-14T09:21:10;23.40;36.80
48551;DHT22;34397;51.176;6.738;2023-06-14T09:23:44;23.40;35.80
48551;DHT22;34397;51.176;6.738;2023-06-14T09:26:18;23.50;36.00
48551;DHT22;34397;51.176;6.738;2023-06-14T09:28:50;23.80;36.50
48551;DHT22;34397;51.176;6.738;2023-06-14T09:31:22;24.10;36.70
48551;DHT22;34397;51.176;6.738;2023-06-14T09:33:56;24.50;36.00
48551;DHT22;34397;51.176;6.738;2023-06-14T09:36:27;25.00;34.70
48551;DHT22;34397;51.176;6.738;2023-06-14T09:39:01;25.60;34.40
48551;DHT22;34397;51.176;6.738;2023-06-14T09:41:37;26.10;36.10
48551;DHT22;34397;51.176;6.738;2023-06-14T09:44:11;26.60;33.90
48551;DHT22;34397;51.176;6.738;2023-06-14T09:46:43;27.10;34.30
48551;DHT22;34397;51.176;6.738;2023-06-14T09:49:17;27.50;33.40
48551;DHT22;34397;51.176;6.738;2023-06-14T09:51:51;28.00;32.20
48551;DHT22;34397;51.176;6.738;2023-06-14T09:54:25;28.30;31.10
48551;DHT22;34397;51.176;6.738;2023-06-14T09:56:58;28.70;31.20
48551;DHT22;34397;51.176;6.738;2023-06-14T09:59:31;29.00;30.40
48551;DHT22;34397;51.176;6.738;2023-06-14T10:02:09;29.40;29.50
48551;DHT22;34397;51.176;6.738;2023-06-14T10:04:49;29.60;29.20
48551;DHT22;34397;51.176;6.738;2023-06-14T10:07:25;29.90;29.30
48551;DHT22;34397;51.176;6.738;2023-06-14T10:10:01;30.20;29.10
48551;DHT22;34397;51.176;6.738;2023-06-14T10:12:33;30.40;29.30
48551;DHT22;34397;51.176;6.738;2023-06-14T10:15:07;30.60;29.30
48551;DHT22;34397;51.176;6.738;2023-06-14T10:17:47;30.90;28.30
48551;DHT22;34397;51.176;6.738;2023-06-14T10:20:28;31.10;28.30
48551;DHT22;34397;51.176;6.738;2023-06-14T10:23:08;31.20;28.50
48551;DHT22;34397;51.176;6.738;2023-06-14T10:25:42;31.40;28.60
48551;DHT22;34397;51.176;6.738;2023-06-14T10:28:16;31.60;28.00
48551;DHT22;34397;51.176;6.738;2023-06-14T10:31:13;31.70;28.20
48551;DHT22;34397;51.176;6.738;2023-06-14T10:33:49;31.90;28.60
48551;DHT22;34397;51.176;6.738;2023-06-14T10:36:27;32.00;27.40
48551;DHT22;34397;51.176;6.738;2023-06-14T10:39:04;32.20;28.10
48551;DHT22;34397;51.176;6.738;2023-06-14T10:41:40;32.30;27.80
48551;DHT22;34397;51.176;6.738;2023-06-14T10:44:33;32.30;28.20
48551;DHT22;34397;51.176;6.738;2023-06-14T10:47:25;32.40;27.80
48551;DHT22;34397;51.176;6.738;2023-06-14T10:50:04;32.50;27.30
48551;DHT22;34397;51.176;6.738;2023-06-14T10:52:40;32.60;27.70
48551;DHT22;34397;51.176;6.738;2023-06-14T10:55:15;32.70;27.90
48551;DHT22;34397;51.176;6.738;2023-06-14T10:57:50;32.80;27.70
48551;DHT22;34397;51.176;6.738;2023-06-14T11:00:24;32.90;27.30
48551;DHT22;34397;51.176;6.738;2023-06-14T11:03:36;33.10;27.60
48551;DHT22;34397;51.176;6.738;2023-06-14T11:06:22;33.10;27.10
48551;DHT22;34397;51.176;6.738;2023-06-14T11:12:12;33.40;27.70
48551;DHT22;34397;51.176;6.738;2023-06-14T11:14:46;33.60;27.60
48551;DHT22;34397;51.176;6.738;2023-06-14T11:17:18;33.70;27.80
48551;DHT22;34397;51.176;6.738;2023-06-14T11:19:50;33.80;27.80
48551;DHT22;34397;51.176;6.738;2023-06-14T11:22:41;34.00;27.70
48551;DHT22;34397;51.176;6.738;2023-06-14T11:25:14;34.10;27.70
48551;DHT22;34397;51.176;6.738;2023-06-14T11:27:48;34.20;27.40
48551;DHT22;34397;51.176;6.738;2023-06-14T11:30:20;34.30;27.30
48551;DHT22;34397;51.176;6.738;2023-06-14T11:32:54;34.30;27.40
48551;DHT22;34397;51.176;6.738;2023-06-14T11:35:26;34.30;27.40
48551;DHT22;34397;51.176;6.738;2023-06-14T11:37:58;34.40;27.30
48551;DHT22;34397;51.176;6.738;2023-06-14T11:40:32;34.40;27.10
48551;DHT22;34397;51.176;6.738;2023-06-14T11:43:04;34.50;27.70
48551;DHT22;34397;51.176;6.738;2023-06-14T11:45:35;34.50;27.30
48551;DHT22;34397;51.176;6.738;2023-06-14T11:48:07;34.60;26.90
48551;DHT22;34397;51.176;6.738;2023-06-14T11:50:39;34.60;27.20
48551;DHT22;34397;51.176;6.738;2023-06-14T11:53:12;34.60;27.30
48551;DHT22;34397;51.176;6.738;2023-06-14T11:55:45;34.60;27.40
48551;DHT22;34397;51.176;6.738;2023-06-14T11:58:18;34.70;27.10
48551;DHT22;34397;51.176;6.738;2023-06-14T12:00:50;34.70;26.90
48551;DHT22;34397;51.176;6.738;2023-06-14T12:03:23;34.80;27.30
48551;DHT22;34397;51.176;6.738;2023-06-14T12:06:03;34.80;27.30
48551;DHT22;34397;51.176;6.738;2023-06-14T12:08:38;34.90;26.90
48551;DHT22;34397;51.176;6.738;2023-06-14T12:11:12;35.00;27.00
48551;DHT22;34397;51.176;6.738;2023-06-14T12:13:45;35.00;27.00
48551;DHT22;34397;51.176;6.738;2023-06-14T12:16:17;35.10;26.60
48551;DHT22;34397;51.176;6.738;2023-06-14T12:18:49;35.10;27.10
48551;DHT22;34397;51.176;6.738;2023-06-14T12:21:23;35.10;26.70
48551;DHT22;34397;51.176;6.738;2023-06-14T12:23:56;35.20;27.00
48551;DHT22;34397;51.176;6.738;2023-06-14T12:26:29;35.20;26.80
48551;DHT22;34397;51.176;6.738;2023-06-14T12:29:05;35.20;26.60
48551;DHT22;34397;51.176;6.738;2023-06-14T12:31:38;35.20;26.80
48551;DHT22;34397;51.176;6.738;2023-06-14T12:34:10;35.20;26.80
48551;DHT22;34397;51.176;6.738;2023-06-14T12:36:41;35.20;26.50
48551;DHT22;34397;51.176;6.738;2023-06-14T12:39:16;35.20;26.60
48551;DHT22;34397;51.176;6.738;2023-06-14T12:41:49;35.20;26.80
48551;DHT22;34397;51.176;6.738;2023-06-14T12:44:21;35.20;26.70
48551;DHT22;34397;51.176;6.738;2023-06-14T12:46:53;35.20;26.90
48551;DHT22;34397;51.176;6.738;2023-06-14T12:49:25;35.30;26.50
48551;DHT22;34397;51.176;6.738;2023-06-14T12:51:57;35.30;26.50
48551;DHT22;34397;51.176;6.738;2023-06-14T12:54:29;35.30;26.60
48551;DHT22;34397;51.176;6.738;2023-06-14T12:57:03;35.30;27.00
48551;DHT22;34397;51.176;6.738;2023-06-14T12:59:35;35.30;26.80
48551;DHT22;34397;51.176;6.738;2023-06-14T13:02:15;35.40;26.60
48551;DHT22;34397;51.176;6.738;2023-06-14T13:04:48;35.20;26.60
48551;DHT22;34397;51.176;6.738;2023-06-14T13:07:20;35.10;26.70
48551;DHT22;34397;51.176;6.738;2023-06-14T13:09:52;35.00;26.60
48551;DHT22;34397;51.176;6.738;2023-06-14T13:12:25;35.00;26.80
48551;DHT22;34397;51.176;6.738;2023-06-14T13:14:57;35.00;26.70
48551;DHT22;34397;51.176;6.738;2023-06-14T13:17:29;35.00;26.40
48551;DHT22;34397;51.176;6.738;2023-06-14T13:20:03;35.00;26.50
48551;DHT22;34397;51.176;6.738;2023-06-14T13:22:37;35.00;26.70
48551;DHT22;34397;51.176;6.738;2023-06-14T13:25:10;35.00;26.80
48551;DHT22;34397;51.176;6.738;2023-06-14T13:27:43;35.10;27.20
48551;DHT22;34397;51.176;6.738;2023-06-14T13:30:15;35.10;26.70
48551;DHT22;34397;51.176;6.738;2023-06-14T13:32:47;35.20;26.70
48551;DHT22;34397;51.176;6.738;2023-06-14T13:35:21;35.20;26.50
48551;DHT22;34397;51.176;6.738;2023-06-14T13:37:53;35.30;26.60
48551;DHT22;34397;51.176;6.738;2023-06-14T13:40:25;35.00;26.60
48551;DHT22;34397;51.176;6.738;2023-06-14T13:42:58;35.00;26.70
48551;DHT22;34397;51.176;6.738;2023-06-14T13:45:30;34.70;26.90
48551;DHT22;34397;51.176;6.738;2023-06-14T13:48:03;34.60;27.10
48551;DHT22;34397;51.176;6.738;2023-06-14T13:50:35;34.50;27.50
48551;DHT22;34397;51.176;6.738;2023-06-14T13:53:07;34.40;26.80
48551;DHT22;34397;51.176;6.738;2023-06-14T13:55:38;34.40;27.20
48551;DHT22;34397;51.176;6.738;2023-06-14T13:58:12;34.40;27.70
48551;DHT22;34397;51.176;6.738;2023-06-14T14:00:44;34.40;27.30
48551;DHT22;34397;51.176;6.738;2023-06-14T14:03:16;34.30;27.30
48551;DHT22;34397;51.176;6.738;2023-06-14T14:05:50;34.20;27.10
48551;DHT22;34397;51.176;6.738;2023-06-14T14:08:22;34.00;27.20
48551;DHT22;34397;51.176;6.738;2023-06-14T14:10:53;33.90;27.60
48551;DHT22;34397;51.176;6.738;2023-06-14T14:13:27;33.80;27.50
48551;DHT22;34397;51.176;6.738;2023-06-14T14:15:59;33.70;27.40
48551;DHT22;34397;51.176;6.738;2023-06-14T14:18:31;33.50;27.40
48551;DHT22;34397;51.176;6.738;2023-06-14T14:21:04;33.30;27.70
48551;DHT22;34397;51.176;6.738;2023-06-14T14:23:36;33.20;27.70
48551;DHT22;34397;51.176;6.738;2023-06-14T14:26:07;32.90;27.50
48551;DHT22;34397;51.176;6.738;2023-06-14T14:28:41;32.80;28.00
48551;DHT22;34397;51.176;6.738;2023-06-14T14:31:12;32.60;28.30
48551;DHT22;34397;51.176;6.738;2023-06-14T14:33:44;32.50;28.60
48551;DHT22;34397;51.176;6.738;2023-06-14T14:36:17;32.40;28.90
48551;DHT22;34397;51.176;6.738;2023-06-14T14:38:48;32.40;28.70
48551;DHT22;34397;51.176;6.738;2023-06-14T14:41:22;32.40;28.20
48551;DHT22;34397;51.176;6.738;2023-06-14T14:43:55;32.30;28.30
48551;DHT22;34397;51.176;6.738;2023-06-14T14:46:28;32.30;28.40
48551;DHT22;34397;51.176;6.738;2023-06-14T14:49:00;32.30;28.40
48551;DHT22;34397;51.176;6.738;2023-06-14T14:51:32;32.30;28.40
48551;DHT22;34397;51.176;6.738;2023-06-14T14:54:04;32.30;27.90
48551;DHT22;34397;51.176;6.738;2023-06-14T14:56:36;32.20;28.70
48551;DHT22;34397;51.176;6.738;2023-06-14T14:59:10;32.20;28.70
48551;DHT22;34397;51.176;6.738;2023-06-14T15:01:42;32.10;28.40
48551;DHT22;34397;51.176;6.738;2023-06-14T15:04:14;32.10;28.40
48551;DHT22;34397;51.176;6.738;2023-06-14T15:06:46;32.10;28.50
48551;DHT22;34397;51.176;6.738;2023-06-14T15:09:18;32.10;28.40
48551;DHT22;34397;51.176;6.738;2023-06-14T15:11:49;32.10;28.20
48551;DHT22;34397;51.176;6.738;2023-06-14T15:14:23;32.00;28.10
48551;DHT22;34397;51.176;6.738;2023-06-14T15:16:54;32.00;28.50
48551;DHT22;34397;51.176;6.738;2023-06-14T15:19:28;31.90;28.50
48551;DHT22;34397;51.176;6.738;2023-06-14T15:22:00;31.80;28.80
48551;DHT22;34397;51.176;6.738;2023-06-14T15:24:32;31.80;28.70
48551;DHT22;34397;51.176;6.738;2023-06-14T15:27:04;31.80;28.60
48551;DHT22;34397;51.176;6.738;2023-06-14T15:29:38;31.80;29.00
48551;DHT22;34397;51.176;6.738;2023-06-14T15:32:10;31.70;28.60
48551;DHT22;34397;51.176;6.738;2023-06-14T15:34:42;31.60;28.80
48551;DHT22;34397;51.176;6.738;2023-06-14T15:37:13;31.50;29.30
48551;DHT22;34397;51.176;6.738;2023-06-14T15:39:45;31.40;29.40
48551;DHT22;34397;51.176;6.738;2023-06-14T15:42:17;31.30;29.10
48551;DHT22;34397;51.176;6.738;2023-06-14T15:44:50;31.20;29.40
48551;DHT22;34397;51.176;6.738;2023-06-14T15:47:22;31.20;29.30
48551;DHT22;34397;51.176;6.738;2023-06-14T15:49:54;31.00;28.90
48551;DHT22;34397;51.176;6.738;2023-06-14T15:52:26;31.00;29.40
48551;DHT22;34397;51.176;6.738;2023-06-14T15:54:58;30.90;29.80
48551;DHT22;34397;51.176;6.738;2023-06-14T15:57:30;30.90;29.50
48551;DHT22;34397;51.176;6.738;2023-06-14T16:00:04;30.80;29.20
48551;DHT22;34397;51.176;6.738;2023-06-14T16:02:37;30.80;28.80
48551;DHT22;34397;51.176;6.738;2023-06-14T16:05:09;30.70;28.60
48551;DHT22;34397;51.176;6.738;2023-06-14T16:07:41;30.70;28.30
48551;DHT22;34397;51.176;6.738;2023-06-14T16:10:13;30.60;28.70